Marysville, WA (98271)

11:34 PM PDT on October 20, 2014 (GMT -0700)
Kruse Junction | Change Station
CLOSE
Current Station
Personal Weather Station
Location: North Marysville, WA
Elevation: 85 ft
Nearby Weather Stations

Elev 85 ft 48.11 °N, 122.17 °W | Updated 1 minute ago

Overcast
Overcast
55.1 °F
Feels Like 55.1 °F
N
0.0
Wind Variable Wind from SE
Gusts 6.0 mph

Today
High -- | Low -- °F
--% Chance of Precip.
Yesterday
High -- | Low -- °F
Precip. -- in
7:35 AM 6:10 PM
Waning Crescent, 7% visible
Pressure 29.80 in
Visibility 10.0 miles
Clouds Few 4800 ft
Overcast 9000 ft
Dew Point 53 °F
Humidity 93%
Rainfall -999.00 in
Snow Depth Not available.
UV 0 out of 12
Pollen .40 out of 12
PM2.5 Good
Flu Activity Sporadic
METAR KAWO 210615Z AUTO 16012G18KT 10SM FEW048 OVC090 13/09 A2980 RMK AO1

More Conditions Fewer Conditions

Pressure 29.80 in
Visibility 10.0 miles
Clouds Few 4800 ft
Overcast 9000 ft
Dew Point 53 °F
Humidity 93%
Rainfall -999.00 in
Snow Depth Not available.
UV 0 out of 12
Pollen .40 out of 12
PM2.5 Good
Flu Activity Sporadic
METAR KAWO 210615Z AUTO 16012G18KT 10SM FEW048 OVC090 13/09 A2980 RMK AO1

More Conditions Fewer Conditions

10-Day Weather Forecast

Almanac

Astronomy

Oct. 20, 2014 Rise Set
Actual Time 7:35 AM PDT 6:10 PM PDT
Civil Twilight 7:04 AM PDT 6:42 PM PDT
Nautical Twilight 6:28 AM PDT 7:18 PM PDT
Astronomical Twilight 5:52 AM PDT 7:54 PM PDT
Moon 4:15 AM PDT (10/20) 4:47 PM PDT (10/20)
Length of Visible Light 11h 37m
Length of Day
10h 34m
Tomorrow will be 3m 20s shorter.
Waning Crescent, 7% of the Moon is Illuminated
Oct 21
Waning Crescent
Oct 23
New
Oct 30
First Quarter
Nov 6
Full
Nov 14
Last Quarter

Community

WunderPhotos

Upload Photos

1,763,617 photos uploaded!

Nearby

Air Quality

  Air Quality AQ Index Pollutant
Yesterday Good
PM2.5
Current Good
PM2.5
Monday Good
PM2.5
Tuesday Good
PM2.5
Wednesday Good
PM2.5
Thursday Good
PM2.5
Friday Good
PM2.5
Saturday Good
PM2.5

Snow Depth

Station Depth Elevation
Alpine Meadows 0 in 3500 ft
Skookum Creek 0 in 3920 ft
Dungeness 0 in 4100 ft
Elbow Lake 0 in 3200 ft
Mf Nooksack 2 in 4980 ft

Earthquake Activity

City Distance Mag. Time & Date
No recent earthquake activity has been reported nearby.
Minimum magnitude displayed is 2.5.

Coastal Water Temperatures

Place Temperature
Port Townsend, WA 52.0 °F
Seattle, WA 55.0 °F
Friday Harbor, WA 51.1 °F
Tacoma, WA 55.0 °F

Nearby Weather Stations